Time;durP1;ratioP1;P1;durP2;ratioP2;P2;SDS_P1;SDS_P2;PMS_P1;PMS_P2;Temp;Humidity;BMP_temperature;BMP_pressure;BME280_temperature;BME280_humidity;BME280_pressure;Samples;Min_cycle;Max_cycle;Signal;HPM_P1;HPM_P2
2022/01/02 00:01:46;;;;;;;10.10;6.03;;;16.90;63.50;;;;;;5058648;28;20027;-83
2022/01/02 00:04:20;;;;;;;12.43;6.22;;;16.80;63.60;;;;;;5059128;28;20013;-83
2022/01/02 00:06:53;;;;;;;10.43;5.70;;;16.90;63.50;;;;;;5057452;28;20064;-83
2022/01/02 00:09:30;;;;;;;9.52;5.68;;;16.70;63.90;;;;;;5058604;28;20012;-86
2022/01/02 00:12:06;;;;;;;10.35;5.85;;;16.40;64.70;;;;;;5058283;28;20038;-90
2022/01/02 00:14:35;;;;;;;11.15;6.40;;;16.40;64.50;;;;;;5073291;28;20474;-94
2022/01/02 00:17:06;;;;;;;13.23;6.30;;;16.70;63.90;;;;;;5078215;28;20115;-85
2022/01/02 00:19:34;;;;;;;9.27;6.43;;;16.40;64.80;;;;;;5059153;28;20056;-90
2022/01/02 00:22:04;;;;;;;8.98;5.85;;;16.50;64.40;;;;;;5059724;28;20028;-91
2022/01/02 00:24:31;;;;;;;11.50;6.50;;;16.20;65.50;;;;;;5058581;28;20020;-92
2022/01/02 00:26:58;;;;;;;9.05;6.25;;;16.20;65.30;;;;;;5068735;28;20059;-87
2022/01/02 00:29:25;;;;;;;10.43;6.22;;;16.40;65.20;;;;;;5058144;28;20028;-90
2022/01/02 00:31:53;;;;;;;9.82;5.93;;;16.40;64.80;;;;;;5058041;28;20032;-93
2022/01/02 00:34:20;;;;;;;11.07;6.30;;;16.30;65.10;;;;;;5057558;28;20094;-93
2022/01/02 00:36:46;;;;;;;11.73;6.70;;;16.50;64.70;;;;;;5064090;28;20487;-92
2022/01/02 00:39:12;;;;;;;11.60;7.03;;;16.70;64.30;;;;;;5078458;28;20024;-89
2022/01/02 00:41:56;;;;;;;10.48;6.78;;;16.60;64.40;;;;;;5079340;28;20039;-86
2022/01/02 00:44:24;;;;;;;9.35;6.20;;;16.20;65.30;;;;;;5078548;28;20016;-91
2022/01/02 00:47:04;;;;;;;12.32;6.65;;;15.80;66.50;;;;;;5078115;28;20482;-91
2022/01/02 00:49:32;;;;;;;10.73;6.38;;;15.70;66.50;;;;;;5076911;28;20041;-93
2022/01/02 00:52:03;;;;;;;10.38;6.40;;;15.90;66.40;;;;;;5079925;28;20028;-83
2022/01/02 00:54:32;;;;;;;11.70;6.80;;;16.00;66.00;;;;;;5096672;28;20024;-87
2022/01/02 00:57:04;;;;;;;10.35;6.45;;;16.10;65.80;;;;;;5074452;28;20027;-88
2022/01/02 00:59:44;;;;;;;10.25;6.07;;;16.10;66.00;;;;;;5058757;28;20035;-87
2022/01/02 01:02:16;;;;;;;11.27;6.43;;;15.90;65.80;;;;;;5057298;28;20021;-84
2022/01/02 01:04:43;;;;;;;9.55;6.60;;;15.60;67.00;;;;;;5057454;28;20024;-94
2022/01/02 01:07:09;;;;;;;9.43;6.07;;;15.80;66.30;;;;;;5058042;28;20107;-83
2022/01/02 01:09:35;;;;;;;13.30;6.80;;;15.70;66.60;;;;;;5077167;28;20459;-85
2022/01/02 01:12:03;;;;;;;11.13;6.85;;;15.80;65.90;;;;;;5076626;28;20023;-82
2022/01/02 01:14:30;;;;;;;10.75;6.50;;;15.80;66.30;;;;;;5077335;28;20032;-88
2022/01/02 01:16:57;;;;;;;9.70;6.55;;;15.70;66.40;;;;;;5076844;28;20408;-91
2022/01/02 01:19:24;;;;;;;11.82;7.10;;;15.70;66.60;;;;;;5072073;28;20036;-82
2022/01/02 01:21:51;;;;;;;13.50;6.28;;;16.00;66.20;;;;;;5057003;28;20031;-85
2022/01/02 01:24:17;;;;;;;12.32;6.93;;;16.00;66.00;;;;;;5057551;28;20190;-90
2022/01/02 01:26:46;;;;;;;10.98;6.68;;;15.80;66.50;;;;;;5057315;28;20012;-89
2022/01/02 01:29:12;;;;;;;11.00;6.32;;;16.00;65.70;;;;;;5073392;28;20059;-88
2022/01/02 01:31:37;;;;;;;10.18;6.60;;;16.20;65.00;;;;;;5057499;28;20052;-86
2022/01/02 01:34:03;;;;;;;12.50;7.43;;;16.10;65.30;;;;;;5060691;28;20395;-93
2022/01/02 01:36:29;;;;;;;10.05;6.20;;;15.70;65.70;;;;;;5058876;28;20017;-87
2022/01/02 01:38:54;;;;;;;11.02;6.70;;;15.30;67.00;;;;;;5062543;28;20021;-93
2022/01/02 01:41:32;;;;;;;9.27;6.32;;;15.30;67.40;;;;;;5061167;28;20025;-83
2022/01/02 01:46:40;;;;;;;10.48;6.90;;;15.60;66.80;;;;;;5080009;28;20020;-90
2022/01/02 01:49:16;;;;;;;11.52;7.13;;;15.70;66.50;;;;;;5076856;28;20023;-94
2022/01/02 01:51:43;;;;;;;13.88;7.10;;;15.80;66.40;;;;;;5078132;28;20081;-90
2022/01/02 01:54:09;;;;;;;12.77;7.00;;;15.90;66.20;;;;;;5076300;28;20123;-94
2022/01/02 01:56:36;;;;;;;11.23;6.63;;;15.80;65.70;;;;;;5070149;28;20115;-92
2022/01/02 01:59:03;;;;;;;10.73;6.63;;;15.70;66.10;;;;;;5056472;28;20078;-87
2022/01/02 02:01:28;;;;;;;11.43;7.32;;;15.80;65.60;;;;;;5057149;28;20356;-85
2022/01/02 02:03:55;;;;;;;12.38;7.20;;;15.70;65.80;;;;;;5057246;28;20051;-92
2022/01/02 02:06:21;;;;;;;11.23;6.80;;;15.50;66.70;;;;;;5060418;28;20356;-92
2022/01/02 02:08:47;;;;;;;11.30;6.80;;;15.50;66.70;;;;;;5060117;28;20059;-84
2022/01/02 02:11:13;;;;;;;14.77;7.63;;;15.50;66.80;;;;;;5056199;28;20066;-92
2022/01/02 02:13:40;;;;;;;11.77;7.22;;;15.50;66.50;;;;;;5057205;28;20036;-84
2022/01/02 02:16:08;;;;;;;11.18;7.45;;;15.50;66.70;;;;;;5056176;28;20016;-88
2022/01/02 02:18:35;;;;;;;11.27;6.68;;;15.50;66.80;;;;;;5060429;28;20065;-92
2022/01/02 02:21:01;;;;;;;12.65;6.75;;;15.80;66.20;;;;;;5076315;28;20417;-85
2022/01/02 02:23:26;;;;;;;11.35;6.80;;;15.70;65.90;;;;;;5076138;28;20477;-86
2022/01/02 02:25:52;;;;;;;12.52;6.95;;;15.60;66.10;;;;;;5073351;28;20119;-89
2022/01/02 02:28:18;;;;;;;13.65;7.43;;;15.70;66.00;;;;;;5056201;28;20078;-87
2022/01/02 02:30:47;;;;;;;11.23;7.38;;;15.70;66.00;;;;;;5063066;28;20022;-92
2022/01/02 02:33:15;;;;;;;11.52;7.60;;;16.00;65.80;;;;;;5079966;28;20051;-94
2022/01/02 02:35:42;;;;;;;12.18;7.47;;;16.00;65.80;;;;;;5080642;28;20020;-85
2022/01/02 02:38:10;;;;;;;13.02;7.32;;;16.20;65.10;;;;;;5081575;28;20451;-88
2022/01/02 02:40:37;;;;;;;11.75;6.75;;;16.00;65.10;;;;;;5080090;28;20024;-94
2022/01/02 02:51:18;;;;;;;11.27;7.20;;;15.60;65.50;;;;;;5098479;28;20023;-94
2022/01/02 02:53:46;;;;;;;11.15;7.18;;;15.60;65.40;;;;;;5080040;28;20081;-86
2022/01/02 02:56:29;;;;;;;13.38;7.45;;;15.50;65.50;;;;;;5079226;28;20051;-90
2022/01/02 02:58:57;;;;;;;12.75;6.80;;;15.60;65.20;;;;;;5079403;28;20028;-92
2022/01/02 03:01:24;;;;;;;10.38;6.72;;;15.60;64.70;;;;;;5075840;28;20383;-91
2022/01/02 03:03:51;;;;;;;11.75;7.85;;;15.60;64.70;;;;;;5059567;28;20062;-87
2022/01/02 03:06:17;;;;;;;12.13;7.93;;;15.40;64.50;;;;;;5059298;28;20012;-90
2022/01/02 03:08:45;;;;;;;12.32;7.50;;;15.20;64.90;;;;;;5058988;28;20031;-86
2022/01/02 03:11:16;;;;;;;13.02;7.85;;;15.50;64.40;;;;;;5059197;28;20023;-90
2022/01/02 03:13:44;;;;;;;11.93;7.50;;;15.30;64.20;;;;;;5058866;28;20052;-90
2022/01/02 03:16:10;;;;;;;13.07;7.65;;;15.20;64.70;;;;;;5058985;28;20059;-89
2022/01/02 03:18:36;;;;;;;13.48;7.65;;;15.40;64.30;;;;;;5079598;28;20021;-91
2022/01/02 03:21:02;;;;;;;13.90;7.50;;;15.50;64.30;;;;;;5079348;28;20016;-93
2022/01/02 03:23:28;;;;;;;15.52;8.20;;;15.10;64.70;;;;;;5096884;28;20016;-88
2022/01/02 03:25:54;;;;;;;12.50;7.72;;;14.90;65.60;;;;;;5078928;28;20020;-89
2022/01/02 03:28:20;;;;;;;13.95;7.65;;;14.80;65.70;;;;;;5078949;28;20024;-90
2022/01/02 03:30:46;;;;;;;15.07;8.10;;;15.00;65.50;;;;;;5059099;28;20020;-89
2022/01/02 03:33:12;;;;;;;14.60;8.18;;;14.80;65.50;;;;;;5076342;28;20418;-93
2022/01/02 03:35:37;;;;;;;11.85;7.72;;;14.70;66.10;;;;;;5076339;28;20035;-89
2022/01/02 03:38:04;;;;;;;13.02;8.25;;;14.50;66.50;;;;;;5058566;28;20460;-87
2022/01/02 03:40:30;;;;;;;13.50;8.07;;;14.10;67.30;;;;;;5076500;28;20020;-86
2022/01/02 03:42:56;;;;;;;14.50;8.55;;;14.00;67.70;;;;;;5058765;28;20360;-93
2022/01/02 03:45:22;;;;;;;17.10;8.95;;;13.90;67.70;;;;;;5076479;28;20456;-92
2022/01/02 03:47:48;;;;;;;11.20;7.32;;;14.00;67.80;;;;;;5075144;28;20020;-90
2022/01/02 03:50:15;;;;;;;14.73;8.70;;;14.20;67.30;;;;;;5078882;28;20024;-93
2022/01/02 03:52:41;;;;;;;13.23;8.65;;;14.20;67.30;;;;;;5078454;28;20024;-92
2022/01/02 03:55:07;;;;;;;17.52;8.93;;;14.20;66.70;;;;;;5088037;28;20045;-93
2022/01/02 03:57:33;;;;;;;13.95;7.95;;;14.40;66.20;;;;;;5058275;28;20024;-92
2022/01/02 03:59:59;;;;;;;12.50;7.95;;;14.40;65.30;;;;;;5076384;28;20070;-91
2022/01/02 04:02:25;;;;;;;16.10;9.85;;;14.20;66.10;;;;;;5076120;28;20074;-86
2022/01/02 04:04:50;;;;;;;12.73;8.63;;;14.10;66.40;;;;;;5081062;28;20024;-85
2022/01/02 04:07:16;;;;;;;12.55;8.70;;;14.00;66.40;;;;;;5078154;28;20119;-87
2022/01/02 04:09:43;;;;;;;17.65;9.32;;;14.20;66.00;;;;;;5078227;28;20456;-93
2022/01/02 04:12:09;;;;;;;16.75;9.18;;;14.50;65.70;;;;;;5078147;28;20070;-91
2022/01/02 04:14:35;;;;;;;17.40;10.13;;;14.70;64.50;;;;;;5095902;28;20032;-88
2022/01/02 04:17:01;;;;;;;17.15;9.90;;;14.80;64.20;;;;;;5094041;28;20020;-87
2022/01/02 04:19:26;;;;;;;21.15;10.43;;;15.10;63.10;;;;;;5076044;28;20025;-91
2022/01/02 04:21:52;;;;;;;15.80;8.98;;;15.00;63.90;;;;;;5058257;28;20052;-89
2022/01/02 04:24:18;;;;;;;15.20;9.38;;;15.10;62.80;;;;;;5075634;28;20055;-92
2022/01/02 04:26:43;;;;;;;14.85;9.90;;;14.70;64.00;;;;;;5057992;28;20017;-92
2022/01/02 04:29:09;;;;;;;19.50;11.07;;;14.70;63.90;;;;;;5075707;28;20034;-93
2022/01/02 04:31:35;;;;;;;14.80;8.63;;;14.90;63.70;;;;;;5095944;28;20070;-93
2022/01/02 04:34:01;;;;;;;20.70;9.88;;;15.00;63.30;;;;;;5095410;28;20484;-87
2022/01/02 04:36:27;;;;;;;16.83;10.10;;;15.10;62.80;;;;;;5074860;28;20020;-89
2022/01/02 04:38:52;;;;;;;15.57;8.80;;;15.20;62.00;;;;;;5057402;28;20042;-88
2022/01/02 04:41:18;;;;;;;14.55;8.88;;;14.80;62.60;;;;;;5057699;28;20051;-90
2022/01/02 04:43:44;;;;;;;15.75;9.02;;;14.30;63.60;;;;;;5058381;28;20024;-88
2022/01/02 04:46:09;;;;;;;16.50;10.27;;;14.20;64.20;;;;;;5057771;28;20092;-87
2022/01/02 04:48:35;;;;;;;16.83;9.75;;;14.30;63.90;;;;;;5057850;28;20016;-83
2022/01/02 04:51:01;;;;;;;18.70;10.57;;;14.10;64.20;;;;;;5057231;28;20115;-91
2022/01/02 04:53:26;;;;;;;21.80;11.45;;;14.10;63.90;;;;;;5056406;28;20044;-87
2022/01/02 04:55:52;;;;;;;17.73;10.63;;;14.20;63.60;;;;;;5057661;28;20027;-91
2022/01/02 04:58:18;;;;;;;16.13;9.65;;;13.90;65.70;;;;;;5074806;28;20029;-86
2022/01/02 05:00:44;;;;;;;18.70;11.00;;;13.50;65.70;;;;;;5075122;28;20096;-87
2022/01/02 05:03:10;;;;;;;16.65;10.20;;;13.60;65.80;;;;;;5057210;28;20068;-93
2022/01/02 05:05:36;;;;;;;19.33;11.80;;;13.90;65.00;;;;;;5057155;28;20021;-91
2022/01/02 05:08:01;;;;;;;18.98;10.85;;;14.10;64.10;;;;;;5068266;28;20031;-90
2022/01/02 05:10:27;;;;;;;22.10;11.95;;;14.20;64.30;;;;;;5095106;28;20467;-88
2022/01/02 05:12:53;;;;;;;16.33;9.68;;;14.30;63.40;;;;;;5076901;28;20421;-84
2022/01/02 05:15:26;;;;;;;18.88;11.50;;;13.90;64.20;;;;;;5094424;28;20032;-89
2022/01/02 05:17:51;;;;;;;17.98;10.93;;;13.60;65.90;;;;;;5084842;28;20035;-90
2022/01/02 05:20:17;;;;;;;15.35;10.35;;;13.80;65.00;;;;;;5074664;28;20119;-89
2022/01/02 05:22:43;;;;;;;16.20;10.82;;;14.10;64.10;;;;;;5057251;28;20099;-89
2022/01/02 05:25:09;;;;;;;23.65;12.35;;;14.30;63.80;;;;;;5057209;28;20021;-88
2022/01/02 05:27:35;;;;;;;25.88;13.82;;;14.20;64.00;;;;;;5040563;28;20017;-93
2022/01/02 05:30:00;;;;;;;20.45;11.32;;;14.30;63.00;;;;;;5057055;28;20077;-90
2022/01/02 05:32:26;;;;;;;16.13;9.82;;;14.50;62.80;;;;;;5056199;28;20039;-88
2022/01/02 05:34:52;;;;;;;21.95;12.10;;;14.20;63.30;;;;;;5056834;28;20038;-92
2022/01/02 05:37:17;;;;;;;23.27;12.40;;;14.20;63.50;;;;;;5069650;28;20024;-88
2022/01/02 05:39:43;;;;;;;23.02;12.32;;;14.10;63.10;;;;;;5095479;28;20012;-93
2022/01/02 05:42:09;;;;;;;20.98;10.85;;;14.00;63.30;;;;;;5095111;28;20055;-89
2022/01/02 05:44:35;;;;;;;16.33;10.07;;;14.10;62.50;;;;;;5077877;28;20027;-92
2022/01/02 05:47:00;;;;;;;25.02;12.52;;;14.20;62.80;;;;;;5066708;28;20032;-93
2022/01/02 05:49:26;;;;;;;20.20;10.90;;;14.00;63.50;;;;;;5056659;28;20501;-89
2022/01/02 05:51:52;;;;;;;22.42;11.40;;;13.60;64.90;;;;;;5074843;28;20498;-89
2022/01/02 05:54:17;;;;;;;22.10;11.38;;;13.70;63.90;;;;;;5056328;28;20032;-92
2022/01/02 05:56:43;;;;;;;25.65;12.88;;;13.90;63.30;;;;;;5071913;28;20020;-92
2022/01/02 05:59:09;;;;;;;22.00;11.70;;;14.00;62.80;;;;;;5076094;28;20062;-86
2022/01/02 06:01:34;;;;;;;19.88;11.60;;;14.20;62.20;;;;;;5094338;28;20018;-86
2022/01/02 06:04:00;;;;;;;20.95;11.32;;;14.10;62.70;;;;;;5075026;28;20024;-88
2022/01/02 06:06:26;;;;;;;16.67;9.85;;;14.20;61.40;;;;;;5062746;28;20078;-90
2022/01/02 06:08:52;;;;;;;25.40;11.63;;;14.10;61.20;;;;;;5073842;28;20468;-91
2022/01/02 06:11:18;;;;;;;23.95;12.68;;;14.10;60.90;;;;;;5056707;28;20027;-88
2022/01/02 06:13:44;;;;;;;35.13;17.90;;;14.20;60.40;;;;;;5073868;28;20475;-91
2022/01/02 06:16:11;;;;;;;41.35;18.52;;;14.20;60.20;;;;;;5086773;28;20451;-91
2022/01/02 06:18:37;;;;;;;34.65;17.98;;;14.20;59.80;;;;;;5075969;28;20045;-90
2022/01/02 06:21:03;;;;;;;24.45;12.38;;;14.20;59.60;;;;;;5094194;28;20051;-89
2022/01/02 06:23:28;;;;;;;20.85;11.70;;;14.00;59.40;;;;;;5076068;28;20028;-93
2022/01/02 06:25:54;;;;;;;21.75;11.50;;;13.70;59.80;;;;;;5076066;28;20020;-92
2022/01/02 06:28:20;;;;;;;35.38;18.08;;;13.70;60.10;;;;;;5092179;28;20035;-93
2022/01/02 06:30:45;;;;;;;32.58;16.55;;;13.50;61.60;;;;;;5056204;28;20025;-92
2022/01/02 06:33:11;;;;;;;23.42;13.30;;;13.60;60.70;;;;;;5073292;28;20047;-93
2022/01/02 06:35:37;;;;;;;19.92;11.63;;;13.70;60.20;;;;;;5081645;28;20032;-91
2022/01/02 06:38:18;;;;;;;24.08;13.18;;;13.50;59.90;;;;;;5093320;28;20043;-91
2022/01/02 06:40:44;;;;;;;20.50;11.45;;;13.30;59.90;;;;;;5073139;28;20016;-85
2022/01/02 06:43:10;;;;;;;21.40;12.15;;;13.40;60.00;;;;;;5055193;28;20042;-89
2022/01/02 06:45:36;;;;;;;22.55;12.88;;;13.40;60.10;;;;;;5060404;28;20016;-92
2022/01/02 06:48:03;;;;;;;26.73;15.45;;;13.60;59.90;;;;;;5073456;28;20069;-84
2022/01/02 06:50:29;;;;;;;30.95;14.95;;;13.70;59.80;;;;;;5074285;28;20012;-88
2022/01/02 06:52:55;;;;;;;32.17;13.38;;;13.80;60.00;;;;;;5063288;28;20040;-89
2022/01/02 06:55:21;;;;;;;23.58;11.82;;;13.80;60.00;;;;;;5065881;28;20455;-82
2022/01/02 06:57:47;;;;;;;50.33;14.32;;;13.60;59.20;;;;;;5061879;28;20028;-92
2022/01/02 07:00:13;;;;;;;73.10;14.70;;;13.40;59.60;;;;;;5055611;28;20024;-93
2022/01/02 07:02:38;;;;;;;38.25;12.05;;;13.50;59.90;;;;;;5073076;28;20146;-85
2022/01/02 07:05:05;;;;;;;51.00;13.82;;;13.30;60.20;;;;;;5056124;28;20390;-92
2022/01/02 07:07:30;;;;;;;48.60;14.75;;;13.40;60.20;;;;;;5089808;28;20024;-89
2022/01/02 07:09:56;;;;;;;107.30;26.88;;;13.00;62.20;;;;;;5062188;28;20021;-87
2022/01/02 07:12:23;;;;;;;65.70;21.13;;;12.60;63.80;;;;;;5066572;28;20039;-90
2022/01/02 07:14:50;;;;;;;98.55;15.10;;;12.80;63.00;;;;;;5063706;28;20040;-85
2022/01/02 07:17:16;;;;;;;101.20;15.27;;;13.00;61.80;;;;;;5059587;28;20023;-85
2022/01/02 07:19:42;;;;;;;127.07;26.77;;;13.20;61.40;;;;;;5059306;28;20017;-90
2022/01/02 07:22:08;;;;;;;74.93;25.02;;;13.50;61.00;;;;;;5066865;28;20016;-91
2022/01/02 07:24:34;;;;;;;99.38;29.55;;;13.70;60.70;;;;;;5077685;28;20028;-91
2022/01/02 07:27:05;;;;;;;83.32;25.52;;;13.60;60.40;;;;;;5077727;28;20403;-88
2022/01/02 07:29:31;;;;;;;90.70;23.85;;;13.30;60.70;;;;;;5064464;28;20336;-89
2022/01/02 07:31:56;;;;;;;108.13;28.15;;;13.10;61.30;;;;;;5058703;28;20031;-90
2022/01/02 07:34:23;;;;;;;88.75;29.17;;;13.30;61.40;;;;;;5057680;28;20036;-86
2022/01/02 07:36:48;;;;;;;169.07;42.65;;;13.70;60.40;;;;;;5078822;28;20027;-86
2022/01/02 07:39:15;;;;;;;109.68;34.53;;;13.30;62.50;;;;;;5077726;28;20024;-85
2022/01/02 07:41:41;;;;;;;74.00;25.70;;;13.50;61.80;;;;;;5068830;28;20012;-84
2022/01/02 07:44:07;;;;;;;103.50;29.65;;;13.60;61.20;;;;;;5058113;28;20021;-91
2022/01/02 07:46:34;;;;;;;77.35;30.15;;;13.70;61.00;;;;;;5058471;28;20017;-87
2022/01/02 07:49:00;;;;;;;114.30;38.25;;;13.90;60.80;;;;;;5066626;28;20013;-90
2022/01/02 07:51:26;;;;;;;105.05;37.92;;;13.90;60.70;;;;;;5067640;28;20409;-89
2022/01/02 07:53:52;;;;;;;84.65;31.70;;;14.10;60.00;;;;;;5095823;28;20024;-81
2022/01/02 07:56:17;;;;;;;115.60;43.38;;;14.10;60.40;;;;;;5074767;28;20518;-90
2022/01/02 07:58:43;;;;;;;84.55;32.08;;;13.90;60.70;;;;;;5096387;28;20481;-85
2022/01/02 08:01:09;;;;;;;55.75;23.08;;;14.10;60.60;;;;;;5077015;28;20056;-84
2022/01/02 08:03:35;;;;;;;40.78;19.77;;;14.20;60.60;;;;;;5067326;28;20012;-90
2022/01/02 08:06:01;;;;;;;55.22;23.10;;;14.50;60.20;;;;;;5073826;28;20039;-81
2022/01/02 08:08:27;;;;;;;40.20;17.70;;;14.80;59.80;;;;;;5071380;28;20038;-81
2022/01/02 08:10:53;;;;;;;39.13;16.77;;;14.90;59.60;;;;;;5063732;28;20032;-85
2022/01/02 08:13:18;;;;;;;34.75;17.80;;;14.90;59.20;;;;;;5070893;28;20020;-91
2022/01/02 08:15:44;;;;;;;31.58;17.10;;;14.70;59.60;;;;;;5078002;28;20020;-90
2022/01/02 08:18:13;;;;;;;34.92;18.60;;;14.70;59.70;;;;;;5077860;28;20016;-90
2022/01/02 08:20:45;;;;;;;55.13;31.90;;;14.60;59.80;;;;;;5074938;28;20106;-84
2022/01/02 08:23:12;;;;;;;46.85;25.88;;;14.70;59.70;;;;;;5057515;28;20012;-82
2022/01/02 08:25:38;;;;;;;40.75;18.60;;;14.70;59.90;;;;;;5057864;28;20025;-86
2022/01/02 08:28:04;;;;;;;33.80;16.10;;;14.80;59.70;;;;;;5056691;28;20082;-90
2022/01/02 08:30:30;;;;;;;38.03;14.07;;;14.90;59.40;;;;;;4711004;28;10000130;-81
2022/01/02 08:32:56;;;;;;;36.47;17.23;;;14.90;59.50;;;;;;5057303;28;20455;-88
2022/01/02 08:35:21;;;;;;;45.30;14.25;;;14.70;60.00;;;;;;5074328;28;20205;-82
2022/01/02 08:37:47;;;;;;;38.38;13.57;;;14.60;60.40;;;;;;5075691;28;20031;-82
2022/01/02 08:40:13;;;;;;;28.25;10.52;;;14.60;60.60;;;;;;5076680;28;20078;-91
2022/01/02 08:42:39;;;;;;;22.45;10.45;;;14.40;61.30;;;;;;5063237;28;20028;-87
2022/01/02 08:45:05;;;;;;;27.20;10.05;;;14.60;61.00;;;;;;5057160;28;20268;-89
2022/01/02 08:47:31;;;;;;;53.45;11.32;;;14.70;61.40;;;;;;5056796;28;20017;-91
2022/01/02 08:49:57;;;;;;;44.70;12.63;;;14.50;61.10;;;;;;5057146;28;20031;-83
2022/01/02 08:52:23;;;;;;;29.67;10.63;;;14.60;61.40;;;;;;5056643;28;20066;-90
2022/01/02 08:54:48;;;;;;;60.03;14.93;;;14.80;60.70;;;;;;5056673;28;20071;-92
2022/01/02 08:57:14;;;;;;;53.63;14.20;;;14.60;61.30;;;;;;5058170;28;20126;-91
2022/01/02 08:59:40;;;;;;;19.95;11.02;;;14.90;61.20;;;;;;5057472;28;20064;-85
2022/01/02 09:02:06;;;;;;;93.95;17.45;;;14.60;61.20;;;;;;5076245;28;20024;-92
2022/01/02 09:04:31;;;;;;;38.90;14.43;;;13.80;64.10;;;;;;5074385;28;20020;-80
2022/01/02 09:06:57;;;;;;;28.52;12.32;;;14.20;63.60;;;;;;5063385;28;20036;-84
2022/01/02 09:09:24;;;;;;;33.95;16.17;;;14.80;62.50;;;;;;5055623;28;20040;-90
2022/01/02 09:11:51;;;;;;;69.13;29.42;;;14.90;61.80;;;;;;5074378;28;20038;-87
2022/01/02 09:14:17;;;;;;;27.17;17.77;;;15.40;61.30;;;;;;5056240;28;20032;-86
2022/01/02 09:16:44;;;;;;;74.53;23.45;;;15.60;60.60;;;;;;5066248;28;20012;-90
2022/01/02 09:19:11;;;;;;;35.58;15.38;;;15.40;60.30;;;;;;5075864;28;20081;-85
2022/01/02 09:21:37;;;;;;;93.18;23.90;;;15.50;60.60;;;;;;5075262;28;20024;-89
2022/01/02 09:24:04;;;;;;;33.40;15.23;;;15.70;60.20;;;;;;5075031;28;20020;-83
2022/01/02 09:26:31;;;;;;;22.05;12.82;;;15.70;60.30;;;;;;5075047;28;20054;-88
2022/01/02 09:28:57;;;;;;;87.00;15.70;;;14.70;62.80;;;;;;5074907;28;20028;-84
2022/01/02 09:31:23;;;;;;;96.90;18.25;;;14.40;63.60;;;;;;5075703;28;20073;-86
2022/01/02 09:33:49;;;;;;;106.07;21.30;;;14.80;63.70;;;;;;5073052;28;20123;-83
2022/01/02 09:36:16;;;;;;;147.05;27.25;;;15.20;62.40;;;;;;5055497;28;20024;-86
2022/01/02 09:38:42;;;;;;;73.80;19.30;;;15.70;61.90;;;;;;5060769;28;20425;-83
2022/01/02 09:41:08;;;;;;;82.80;23.75;;;15.90;61.80;;;;;;5055566;28;20017;-86
2022/01/02 09:43:34;;;;;;;123.60;27.65;;;15.90;61.50;;;;;;5093562;28;20026;-87
2022/01/02 09:46:00;;;;;;;62.20;21.38;;;16.00;61.70;;;;;;5093796;28;20128;-89
2022/01/02 09:48:27;;;;;;;90.18;24.98;;;16.10;61.70;;;;;;5075728;28;20123;-90
2022/01/02 09:50:53;;;;;;;58.80;25.00;;;16.00;62.00;;;;;;5093662;28;20019;-90
2022/01/02 09:53:19;;;;;;;81.35;24.98;;;16.20;61.70;;;;;;5075566;28;20012;-91
2022/01/02 09:55:44;;;;;;;76.95;24.08;;;16.40;61.40;;;;;;5073941;28;20031;-86
2022/01/02 09:58:12;;;;;;;47.28;20.77;;;16.50;61.20;;;;;;5055774;28;20020;-88
2022/01/02 10:00:40;;;;;;;42.05;23.38;;;15.60;62.10;;;;;;5073507;28;20051;-84
2022/01/02 10:03:10;;;;;;;58.90;26.50;;;15.30;64.20;;;;;;5055208;28;20024;-81
2022/01/02 10:05:53;;;;;;;46.20;22.10;;;15.40;64.00;;;;;;5066625;28;20019;-82
2022/01/02 10:08:35;;;;;;;45.67;19.92;;;14.90;64.10;;;;;;5075582;28;20020;-88
2022/01/02 10:11:18;;;;;;;92.32;25.02;;;13.70;67.30;;;;;;5088119;28;20024;-80
2022/01/02 10:14:06;;;;;;;66.75;23.40;;;13.50;68.80;;;;;;5064142;28;20058;-80
2022/01/02 10:16:38;;;;;;;46.38;23.95;;;14.10;67.40;;;;;;5068349;28;20422;-87
2022/01/02 10:19:18;;;;;;;70.30;23.55;;;14.70;66.30;;;;;;5067126;28;20111;-84
2022/01/02 10:21:59;;;;;;;55.90;29.77;;;15.20;64.10;;;;;;5055842;28;20111;-86
2022/01/02 10:24:27;;;;;;;;;;;15.10;65.00;;;;;;5083431;28;20027;-84
2022/01/02 10:27:19;;;;;;;94.85;27.48;;;15.50;63.70;;;;;;5063418;28;19900;-85
2022/01/02 10:29:50;;;;;;;59.75;28.13;;;15.70;63.00;;;;;;5058494;28;20028;-87
2022/01/02 10:32:31;;;;;;;;;;;15.20;64.70;;;;;;5076389;28;20046;-83
2022/01/02 10:35:07;;;;;;;48.28;24.92;;;15.50;63.60;;;;;;5052416;28;19917;-89
2022/01/02 10:37:33;;;;;;;44.03;25.00;;;15.20;64.70;;;;;;5052615;28;20032;-87
2022/01/02 10:39:58;;;;;;;50.03;24.92;;;15.20;64.80;;;;;;5042817;28;20022;-88
2022/01/02 10:42:24;;;;;;;43.38;23.88;;;15.20;64.20;;;;;;5032365;28;20071;-88
2022/01/02 10:44:50;;;;;;;67.00;26.60;;;15.20;65.00;;;;;;5032452;28;20067;-87
2022/01/02 10:47:22;;;;;;;41.70;22.95;;;15.80;64.40;;;;;;5032238;28;20026;-87
2022/01/02 10:49:52;;;;;;;34.13;20.30;;;16.70;62.40;;;;;;5033862;28;20025;-84
2022/01/02 10:52:27;;;;;;;33.63;21.15;;;17.10;61.40;;;;;;5036434;28;20021;-86
2022/01/02 10:54:56;;;;;;;37.67;20.73;;;17.70;60.10;;;;;;5036038;28;20037;-84
2022/01/02 10:57:21;;;;;;;42.15;22.40;;;18.20;59.30;;;;;;5036190;28;20154;-89
2022/01/02 10:59:47;;;;;;;49.42;24.30;;;18.90;58.00;;;;;;5037411;28;20478;-86
2022/01/02 11:02:15;;;;;;;41.08;21.75;;;19.30;57.00;;;;;;5036276;28;20017;-86
2022/01/02 11:04:51;;;;;;;33.40;21.38;;;19.30;56.10;;;;;;5036967;28;20032;-85
2022/01/02 11:07:23;;;;;;;30.15;19.77;;;18.70;57.30;;;;;;5036761;28;20491;-80
2022/01/02 11:09:53;;;;;;;27.63;18.20;;;18.20;58.70;;;;;;5035991;28;20108;-84
2022/01/02 11:12:19;;;;;;;30.80;18.67;;;18.30;58.70;;;;;;5035679;28;20029;-88
2022/01/02 11:14:46;;;;;;;30.75;20.35;;;18.20;58.90;;;;;;5035711;28;20492;-91
2022/01/02 11:17:13;;;;;;;32.75;20.73;;;18.80;58.40;;;;;;5036001;28;20021;-90
2022/01/02 11:19:40;;;;;;;37.35;23.20;;;19.30;56.90;;;;;;5035676;28;20112;-88
2022/01/02 11:22:34;;;;;;;37.72;24.55;;;20.00;56.20;;;;;;5048810;28;20453;-92
2022/01/02 11:25:18;;;;;;;35.45;22.70;;;20.00;55.60;;;;;;5052252;28;20033;-89
2022/01/02 11:27:58;;;;;;;30.73;20.10;;;19.40;56.00;;;;;;5055749;28;20084;-88
2022/01/02 11:30:33;;;;;;;32.30;21.23;;;18.80;57.60;;;;;;5045325;28;20411;-84
2022/01/02 11:33:07;;;;;;;32.20;20.65;;;18.00;59.20;;;;;;5039814;28;20384;-88
2022/01/02 11:35:35;;;;;;;33.50;20.50;;;17.80;59.30;;;;;;5061475;28;20029;-88
2022/01/02 11:38:02;;;;;;;32.10;20.38;;;17.40;60.00;;;;;;5055421;28;20052;-84
2022/01/02 11:40:53;;;;;;;29.98;20.42;;;17.20;60.80;;;;;;5056602;28;20163;-83
2022/01/02 11:43:49;;;;;;;29.10;19.73;;;17.50;60.10;;;;;;5055265;28;20021;-87
2022/01/02 11:46:17;;;;;;;24.73;17.88;;;17.80;60.00;;;;;;5054810;28;20041;-86
2022/01/02 11:49:04;;;;;;;27.52;18.83;;;17.30;59.90;;;;;;5055249;28;20041;-85
2022/01/02 11:52:06;;;;;;;25.58;18.38;;;17.30;60.70;;;;;;5055110;28;20021;-83
2022/01/02 11:54:32;;;;;;;26.15;17.92;;;17.10;61.00;;;;;;5040670;28;20107;-88
2022/01/02 11:57:23;;;;;;;26.08;18.23;;;16.70;61.60;;;;;;5061377;28;20816;-83
2022/01/02 11:59:48;;;;;;;24.17;17.67;;;16.80;62.20;;;;;;5061500;28;20093;-90
2022/01/02 12:02:24;;;;;;;25.10;17.80;;;17.10;61.40;;;;;;5071850;28;20021;-88
2022/01/02 12:05:15;;;;;;;26.98;17.77;;;16.90;61.30;;;;;;5055142;28;20024;-87
2022/01/02 12:07:45;;;;;;;24.10;17.65;;;17.10;61.10;;;;;;5062015;28;20120;-84
2022/01/02 12:10:17;;;;;;;30.80;19.95;;;16.80;61.40;;;;;;5054815;28;20059;-84
2022/01/02 12:13:06;;;;;;;26.60;19.50;;;17.00;61.90;;;;;;5063090;28;20455;-85
2022/01/02 12:15:34;;;;;;;26.29;18.37;;;17.20;61.70;;;;;;4704699;28;10000687;-88
2022/01/02 12:18:26;;;;;;;25.88;18.77;;;17.30;60.90;;;;;;5067212;28;20493;-83
2022/01/02 12:21:00;;;;;;;26.48;18.10;;;16.90;61.80;;;;;;5072356;28;20016;-89
2022/01/02 12:23:34;;;;;;;25.95;17.70;;;16.80;61.50;;;;;;5068088;28;20021;-84
2022/01/02 12:26:21;;;;;;;28.33;19.50;;;16.60;62.20;;;;;;5061949;28;20170;-91
2022/01/02 12:28:56;;;;;;;25.67;18.23;;;16.80;62.90;;;;;;5065638;28;20285;-92
2022/01/02 12:31:28;;;;;;;30.25;23.17;;;17.50;62.00;;;;;;5067660;28;20020;-87
2022/01/02 12:33:54;;;;;;;27.30;18.80;;;18.10;60.30;;;;;;5087761;28;20479;-92
2022/01/02 12:36:21;;;;;;;28.63;19.13;;;17.80;60.20;;;;;;5077922;28;20107;-82
2022/01/02 12:38:52;;;;;;;26.33;18.58;;;18.00;60.30;;;;;;5078023;28;20076;-86
2022/01/02 12:41:23;;;;;;;26.98;18.88;;;18.30;60.00;;;;;;5077276;28;20020;-87
2022/01/02 12:44:04;;;;;;;26.23;17.65;;;18.70;59.50;;;;;;5078270;28;20024;-91
2022/01/02 12:46:43;;;;;;;25.05;18.63;;;18.90;58.60;;;;;;5073984;28;20012;-81
2022/01/02 12:49:16;;;;;;;28.75;18.58;;;18.60;58.80;;;;;;5058004;28;20446;-91